Poydras, Louisiana
Current Conditions -  °F | °C
As of 3:55 AM on Saturday 22 Nov 2014 (Local Time) from KNBG Reporting Station
Clear Clear  
Wind Chill: 52°   Ceiling: Unl
Heat Index: 52°   Visibility: NA
Dew Point: 48°   Wind: 8mph
Humidity: 86%   Direction: 60°ENE
Pressure: 30.2"   Gusts: NA
Location:  29.8369°N, 89.7702°W
Report Text: KNBG 220955Z AUTO 06007KT CLR 11/09 A3020 RMK AO2 SLP227 T01110089 TSNO $
Loading
Personal Weather Stations






























Interactive Weather Map New forecast layout! Learn more

10-Day Weather Forecast

Advertisements
Track Severe Weather on mobile